• Join FlightAware (Why Join?)
  • Login
  • US Flag 
03:20AM EDT


 

Airport Tracker/Info


-or-


 

Live Flight TrackerFlight Track Log ✈ SVA343 ✈ 13-May-2013 ✈ OEJN / JED - DAAG / ALG

Flight Track Log - Related Links

Times and Time Zones

All times are in EDT time to prevent confusion due to time zone crossing. See the SVA343 flight status page for this flight to view local times or setup timezone preferences in your user account.

Time Position Orientation Groundspeed Altitude Reporting Facility
EDT Latitude Longitude Course Direction KTS MPH feet Rate Location/Type
04:10PM 24.8345 33.8273 304° West  Level Estimated
04:11PM 24.8912 33.7261 302° West  Level Estimated
04:12PM 24.9478 33.6249 302° West  Level Estimated
04:13PM 25.0043 33.5236 302° West  Level Estimated
04:14PM 25.0608 33.4222 302° West  Level Estimated
04:15PM 25.1172 33.3207 302° West  Level Estimated
04:16PM 25.1735 33.2191 302° West  Level Estimated
04:17PM 25.2298 33.1174 301° West  Level Estimated
04:18PM 25.2860 33.0156 301° West  Level Estimated
04:19PM 25.3421 32.9137 301° West  Level Estimated
04:20PM 25.3981 32.8118 301° West  Level Estimated
04:21PM 25.4541 32.7097 301° West  Level Estimated
04:22PM 25.5100 32.6075 301° West  Level Estimated
04:23PM 25.5659 32.5053 301° West  Level Estimated
04:24PM 25.6216 32.4029 301° West  Level Estimated
04:25PM 25.6773 32.3005 301° West  Level Estimated
04:26PM 25.7329 32.1979 301° West  Level Estimated
04:27PM 25.7885 32.0953 301° West  Level Estimated
04:28PM 25.8440 31.9926 301° West  Level Estimated
04:29PM 25.8994 31.8897 301° West  Level Estimated
04:30PM 25.9547 31.7868 301° West  Level Estimated
04:31PM 26.0100 31.6838 301° West  Level Estimated
04:32PM 26.0651 31.5807 301° West  Level Estimated
04:33PM 26.1203 31.4774 301° West  Level Estimated
04:34PM 26.1753 31.3741 301° West  Level Estimated
04:35PM 26.2303 31.2707 301° West  Level Estimated
04:36PM 26.2852 31.1672 301° West  Level Estimated
04:37PM 26.3400 31.0636 301° West  Level Estimated
04:38PM 26.3947 30.9599 301° West  Level Estimated
04:39PM 26.4494 30.8561 300° West  Level Estimated
04:40PM 26.5040 30.7522 300° West  Level Estimated
04:41PM 26.5585 30.6482 300° West  Level Estimated
04:42PM 26.6129 30.5441 300° West  Level Estimated
04:43PM 26.6673 30.4399 300° West  Level Estimated
04:44PM 26.7216 30.3356 300° West  Level Estimated
04:45PM 26.7758 30.2312 300° West  Level Estimated
04:46PM 26.8300 30.1267 300° West  Level Estimated
04:47PM 26.8840 30.0221 300° West  Level Estimated
04:48PM 26.9380 29.9174 300° West  Level Estimated
04:49PM 26.9919 29.8126 300° West  Level Estimated
04:50PM 27.0457 29.7077 300° West  Level Estimated
04:51PM 27.0995 29.6027 300° West  Level Estimated
04:52PM 27.1532 29.4976 300° West  Level Estimated
04:53PM 27.2067 29.3924 300° West  Level Estimated
04:54PM 27.2603 29.2871 300° West  Level Estimated
04:55PM 27.3137 29.1817 300° West  Level Estimated
04:56PM 27.3671 29.0761 300° West  Level Estimated
04:57PM 27.4203 28.9705 300° West  Level Estimated
04:58PM 27.4735 28.8648 300° West  Level Estimated
04:59PM 27.5266 28.7590 300° West  Level Estimated
05:00PM 27.5797 28.6531 299° West  Level Estimated
05:01PM 27.6327 28.5471 299° West  Level Estimated
05:02PM 27.6855 28.4410 299° West  Level Estimated
05:03PM 27.7383 28.3347 299° West  Level Estimated
05:04PM 27.7910 28.2284 299° West  Level Estimated
05:05PM 27.8437 28.1220 299° West  Level Estimated
05:06PM 27.8962 28.0154 299° West  Level Estimated
05:07PM 27.9487 27.9088 299° West  Level Estimated
05:08PM 28.0011 27.8021 299° West  Level Estimated
05:09PM 28.0534 27.6952 299° West  Level Estimated
05:10PM 28.1056 27.5883 299° West  Level Estimated
05:11PM 28.1577 27.4812 299° West  Level Estimated
05:12PM 28.2098 27.3741 299° West  Level Estimated
05:13PM 28.2618 27.2668 299° West  Level Estimated
05:14PM 28.3137 27.1595 299° West  Level Estimated
05:15PM 28.3655 27.0520 299° West  Level Estimated
05:16PM 28.4172 26.9444 299° West  Level Estimated
05:17PM 28.4688 26.8367 299° West  Level Estimated
05:18PM 28.5204 26.7290 299° West  Level Estimated
05:19PM 28.5718 26.6211 299° West  Level Estimated
05:20PM 28.6232 26.5131 298° West  Level Estimated
05:21PM 28.6745 26.4050 298° West  Level Estimated
05:22PM 28.7257 26.2968 298° West  Level Estimated
05:23PM 28.7768 26.1885 298° West  Level Estimated
05:24PM 28.8279 26.0800 298° West  Level Estimated
05:25PM 28.8788 25.9715 298° West  Level Estimated
05:26PM 28.9297 25.8629 298° West  Level Estimated
05:27PM 28.9805 25.7542 298° West  Level Estimated
05:28PM 29.0312 25.6453 298° West  Level Estimated
05:29PM 29.0818 25.5364 298° West  Level Estimated
05:30PM 29.1323 25.4273 298° West  Level Estimated
05:31PM 29.1827 25.3181 298° West  Level Estimated
05:32PM 29.2330 25.2089 298° West  Level Estimated
05:33PM 29.2833 25.0995 298° West  Level Estimated
05:34PM 29.3334 24.9900 298° West  Level Estimated
05:35PM 29.3835 24.8804 298° West  Level Estimated
05:36PM 29.4335 24.7707 298° West  Level Estimated
05:37PM 29.4834 24.6609 298° West  Level Estimated
05:38PM 29.5331 24.5510 298° West  Level Estimated
05:39PM 29.5829 24.4410 297° West  Level Estimated
05:40PM 29.6325 24.3308 297° West  Level Estimated
05:41PM 29.6820 24.2206 297° West  Level Estimated
05:42PM 29.7314 24.1102 297° West  Level Estimated
05:43PM 29.7808 23.9998 297° West  Level Estimated
05:44PM 29.8300 23.8892 297° West  Level Estimated
05:45PM 29.8792 23.7785 297° West  Level Estimated
05:46PM 29.9282 23.6677 297° West  Level Estimated
05:47PM 29.9772 23.5568 297° West  Level Estimated
05:48PM 30.0261 23.4458 297° West  Level Estimated
05:49PM 30.0749 23.3347 297° West  Level Estimated
05:50PM 30.1236 23.2235 297° West  Level Estimated
05:51PM 30.1722 23.1121 297° West  Level Estimated
05:52PM 30.2207 23.0007 297° West  Level Estimated
05:53PM 30.2691 22.8891 297° West  Level Estimated
05:54PM 30.3174 22.7775 297° West  Level Estimated
05:55PM 30.3656 22.6657 297° West  Level Estimated
05:56PM 30.4137 22.5538 297° West  Level Estimated
05:57PM 30.4618 22.4418 296° West  Level Estimated
05:58PM 30.5097 22.3297 296° West  Level Estimated
05:59PM 30.5575 22.2175 296° West  Level Estimated
06:00PM 30.6053 22.1052 296° West  Level Estimated
06:01PM 30.6529 21.9927 296° West  Level Estimated
06:02PM 30.7005 21.8802 296° West  Level Estimated
06:03PM 30.7479 21.7675 296° West  Level Estimated
06:04PM 30.7953 21.6548 296° West  Level Estimated
06:05PM 30.8425 21.5419 296° West  Level Estimated
06:05PM 34.7270 22.5150 296° West 434 499 36,000  Level FlightAware
06:06PM 30.8897 21.4289 296° West  Level Estimated
06:06PM 34.7620 22.3570 285° West 433 498 36,000  Level FlightAware
06:07PM 34.7860 22.2460 285° West 435 501 36,000  Level FlightAware
06:08PM 34.8070 22.1500 285° West 437 503 36,000  Level FlightAware
06:08PM 34.8290 22.0520 285° West 438 504 36,000  Level FlightAware
06:09PM 34.8500 21.9550 285° West 438 504 36,000  Level FlightAware
06:10PM 34.8670 21.8730 284° West 438 504 36,000  Level FlightAware
06:10PM 34.8880 21.7710 284° West 438 504 36,000  Level FlightAware
06:11PM 34.9050 21.6900 284° West 438 504 36,000  Level FlightAware
06:12PM 34.9210 21.6080 283° West 438 504 36,000  Level FlightAware
06:12PM 34.9380 21.5270 284° West 438 504 36,000  Level FlightAware
06:13PM 34.9550 21.4450 284° West 438 504 36,000  Level FlightAware
06:14PM 34.9750 21.3430 283° West 438 504 36,000  Level FlightAware
06:15PM 34.9920 21.2610 284° West 438 504 36,000  Level FlightAware
06:15PM 35.0090 21.1800 284° West 438 504 36,000  Level FlightAware
06:16PM 35.0250 21.0980 283° West 438 504 36,000  Level FlightAware
06:17PM 35.0420 21.0170 284° West 438 504 36,000  Level FlightAware
06:17PM 35.0630 20.9140 284° West 438 504 36,000  Level FlightAware
06:18PM 35.0800 20.8330 284° West 438 504 36,000  Level FlightAware
06:19PM 35.0960 20.7510 283° West 438 504 36,000  Level FlightAware
06:21PM 35.1328 20.5292 282° West  Level Estimated
06:22PM 35.1540 20.3999 281° West  Level Estimated
06:23PM 35.1751 20.2705 281° West  Level Estimated
06:24PM 35.1961 20.1411 281° West  Level Estimated
06:25PM 35.2169 20.0116 281° West  Level Estimated
06:25PM 35.3060 19.7490 281° West 421 484 36,000  Level FlightAware
06:26PM 35.3240 19.6570 284° West 420 483 36,000  Level FlightAware
06:26PM 35.3440 19.5540 283° West 420 483 36,000  Level FlightAware
06:27PM 35.3620 19.4630 284° West 420 483 36,000  Level FlightAware
06:28PM 35.3760 19.3840 282° West 420 483 36,000  Level FlightAware
06:28PM 35.4010 19.2620 284° West 423 487 36,000  Level FlightAware
06:29PM 35.4150 19.1850 283° West 423 487 36,000  Level FlightAware
06:30PM 35.4300 19.1050 283° West 423 487 36,000  Level FlightAware
06:31PM 35.4490 19.0060 283° West 423 487 36,000  Level FlightAware
06:32PM 35.4860 18.8150 283° West 421 484 36,000  Level FlightAware
06:33PM 35.5130 18.6640 282° West 420 483 36,000  Level FlightAware
06:33PM 35.5340 18.5570 284° West 420 483 36,000  Level FlightAware
06:34PM 35.5510 18.4650 283° West 420 483 36,000  Level FlightAware
06:35PM 35.5690 18.3710 283° West 419 482 36,000  Level FlightAware
06:35PM 35.5850 18.2830 283° West 419 482 36,000  Level FlightAware
06:36PM 35.6050 18.1730 283° West 418 481 36,000  Level FlightAware
06:37PM 35.6240 18.0630 282° West 417 480 36,000  Level FlightAware
06:38PM 35.6460 17.9440 283° West 417 480 36,000  Level FlightAware
06:38PM 35.6630 17.8510 283° West 417 480 36,000  Level FlightAware
06:39PM 35.6790 17.7600 282° West 417 480 36,000  Level FlightAware
06:40PM 35.6990 17.6530 283° West 417 480 36,000  Level FlightAware
06:41PM 35.7150 17.5610 282° West 415 478 36,000  Level FlightAware
06:41PM 35.7330 17.4580 282° West 413 475 36,000 60 Level FlightAware
06:42PM 35.7490 17.3650 282° West 411 473 36,100  Climbing FlightAware
06:43PM 35.7650 17.2750 282° West 410 472 36,000  Descending FlightAware
06:43PM 35.7830 17.1720 282° West 410 472 36,100  Climbing FlightAware
06:44PM 35.7980 17.0830 282° West 410 472 36,000 -120 Descending FlightAware
06:45PM 35.8160 16.9790 282° West 411 473 36,000  Level FlightAware
06:45PM 35.8320 16.8870 282° West 411 473 36,000  Level FlightAware
06:46PM 35.8470 16.7970 282° West 411 473 36,000  Level FlightAware
06:47PM 35.8650 16.6930 282° West 411 473 36,000  Level FlightAware
06:48PM 35.8800 16.6030 282° West 410 472 36,000  Level FlightAware
06:48PM 35.8970 16.4990 281° West 409 471 36,000  Level FlightAware
06:49PM 35.9130 16.4060 282° West 407 468 36,000  Level FlightAware
06:50PM 35.9290 16.3080 281° West 407 468 36,000  Level FlightAware
06:50PM 35.9440 16.2160 281° West 408 470 36,000  Level FlightAware
06:51PM 35.9590 16.1220 281° West 408 470 36,000  Level FlightAware
06:52PM 35.9760 16.0210 282° West 408 470 36,000  Level FlightAware
06:52PM 35.9910 15.9290 281° West 407 468 36,000  Level FlightAware
06:53PM 36.0070 15.8270 281° West 406 467 36,000  Level FlightAware
06:54PM 36.0220 15.7360 282° West 406 467 36,000  Level FlightAware
06:55PM 36.0370 15.6440 281° West 406 467 36,000  Level FlightAware
06:55PM 36.0520 15.5450 281° West 403 464 36,000  Level FlightAware
06:56PM 36.0670 15.4520 281° West 401 461 36,000  Level FlightAware
06:57PM 36.0830 15.3520 281° West 400 460 36,000  Level FlightAware
06:57PM 36.0970 15.2630 281° West 400 460 36,000  Level FlightAware
06:58PM 36.1110 15.1730 281° West 399 459 36,000  Level FlightAware
06:59PM 36.1260 15.0730 281° West 397 457 36,000  Level FlightAware
06:59PM 36.1400 14.9830 281° West 397 457 36,000  Level FlightAware
07:00PM 36.1550 14.8850 281° West 396 456 36,000  Level FlightAware
07:01PM 36.1690 14.7940 281° West 395 455 36,000  Level FlightAware
07:02PM 36.1820 14.7050 280° West 395 455 36,000  Level FlightAware
07:02PM 36.1970 14.6080 281° West 394 453 36,000  Level FlightAware
07:03PM 36.2100 14.5180 280° West 391 450 36,000  Level FlightAware
07:04PM 36.2230 14.4300 280° West 392 451 36,000  Level FlightAware
07:04PM 36.2380 14.3300 281° West 391 450 36,000  Level FlightAware
07:05PM 36.2510 14.2430 281° West 391 450 36,000  Level FlightAware
07:06PM 36.2640 14.1540 280° West 389 448 36,000  Level FlightAware
07:06PM 36.2780 14.0550 280° West 388 447 36,000  Level FlightAware
07:07PM 36.2910 13.9680 281° West 387 445 36,000  Level FlightAware
07:08PM 36.3050 13.8720 280° West 386 444 36,000  Level FlightAware
07:09PM 36.3180 13.7840 280° West 385 443 36,000  Level FlightAware
07:09PM 36.3300 13.6980 280° West 386 444 36,000  Level FlightAware
07:10PM 36.3440 13.6000 280° West 385 443 36,000  Level FlightAware
07:11PM 36.3560 13.5110 280° West 384 442 36,000  Level FlightAware
07:11PM 36.3700 13.4140 280° West 383 441 36,000  Level FlightAware
07:12PM 36.3820 13.3280 280° West 383 441 36,000  Level FlightAware
07:13PM 36.3930 13.2430 279° West 381 438 36,000  Level FlightAware
07:13PM 36.4060 13.1470 280° West 381 438 36,000  Level FlightAware
07:14PM 36.4180 13.0590 280° West 380 437 36,000  Level FlightAware
07:15PM 36.4300 12.9740 280° West 380 437 36,000  Level FlightAware
07:16PM 36.4430 12.8760 279° West 380 437 36,000  Level FlightAware
07:16PM 36.4550 12.7910 280° West 379 436 36,000  Level FlightAware
07:17PM 36.4670 12.6960 279° West 378 435 36,000  Level FlightAware
07:18PM 36.4790 12.6090 280° West 377 434 36,000  Level FlightAware
07:18PM 36.4900 12.5240 279° West 375 432 36,000  Level FlightAware
07:19PM 36.5030 12.4290 280° West 376 433 36,000  Level FlightAware
07:20PM 36.5140 12.3420 279° West 376 433 36,000  Level FlightAware
07:20PM 36.5260 12.2480 279° West 377 434 36,000  Level FlightAware
07:21PM 36.5370 12.1510 278° West 376 433 36,000 60 Level FlightAware
07:22PM 36.5450 12.0660 277° West 372 428 36,100 60 Climbing FlightAware
07:23PM 36.5530 11.9790 277° West 375 432 36,100 -120 Level FlightAware
07:23PM 36.5620 11.8870 277° West 374 430 36,000 -120 Descending FlightAware
07:24PM 36.5710 11.7990 277° West 372 428 36,000  Level FlightAware
07:25PM 36.5800 11.7020 277° West 371 427 36,000  Level FlightAware
07:25PM 36.5880 11.6190 277° West 370 426 36,000  Level FlightAware
07:26PM 36.5960 11.5360 277° West 369 425 36,000  Level FlightAware
07:27PM 36.6040 11.4530 277° West 369 425 36,000  Level FlightAware
07:27PM 36.6130 11.3560 277° West 367 422 36,000  Level FlightAware
07:28PM 36.6210 11.2720 277° West 366 421 36,000  Level FlightAware
07:29PM 36.6300 11.1750 277° West 365 420 36,000  Level FlightAware
07:30PM 36.6380 11.0930 277° West 364 419 36,000  Level FlightAware
07:30PM 36.6460 11.0000 276° West 363 418 36,000  Level FlightAware
07:31PM 36.6530 10.9190 276° West 363 418 36,000  Level FlightAware
07:32PM 36.6610 10.8350 277° West 365 420 36,000  Level FlightAware
07:32PM 36.6690 10.7380 276° West 367 422 36,000  Level FlightAware
07:33PM 36.6770 10.6550 277° West 369 425 36,000  Level FlightAware
07:34PM 36.6850 10.5610 276° West 371 427 36,000  Level FlightAware
07:34PM 36.6920 10.4770 276° West 372 428 36,000  Level FlightAware
07:35PM 36.6990 10.3910 276° West 372 428 36,000  Level FlightAware
07:36PM 36.7080 10.2940 277° West 373 429 36,000  Level FlightAware
07:37PM 36.7150 10.2080 276° West 372 428 36,000  Level FlightAware
07:37PM 36.7230 10.1140 276° West 370 426 36,000  Level FlightAware
07:38PM 36.7300 10.0300 276° West 369 425 36,000  Level FlightAware
07:39PM 36.7380 9.9320 276° West 368 423 36,000  Level FlightAware
07:41PM 36.7429 9.6898 272° West  Level Estimated
07:41PM 36.7590 9.6660 272° West 365 420 36,000  Level FlightAware
07:43PM 36.7820 9.3650 276° West 363 418 36,000  Level FlightAware
07:44PM 36.7930 9.2190 275° West 365 420 36,000  Level FlightAware
07:46PM 36.8040 9.0390 274° West 368 423 36,000  Level FlightAware
07:47PM 36.8060 8.9520 272° West 370 426 36,000  Level FlightAware
07:47PM 36.8070 8.8590 271° West 371 427 36,000  Level FlightAware
07:48PM 36.8090 8.7810 272° West 371 427 36,000  Level FlightAware
07:49PM 36.8090 8.6910 270° West 371 427 36,000  Level FlightAware
07:49PM 36.8090 8.6190 270° West 371 427 36,000  Level FlightAware
07:50PM 36.8090 8.5460 270° West 371 427 36,000  Level FlightAware
07:51PM 36.8090 8.4550 270° West 371 427 36,000  Level FlightAware
07:51PM 36.8090 8.3820 270° West 371 427 36,000  Level FlightAware
07:52PM 36.8090 8.3090 270° West 371 427 36,000  Level FlightAware
07:53PM 36.8090 8.2360 270° West 371 427 36,000  Level FlightAware
07:53PM 36.8090 8.1630 270° West 371 427 36,000  Level FlightAware
07:54PM 36.8090 8.0720 270° West 371 427 36,000  Level FlightAware
07:55PM 36.8090 7.9990 270° West 371 427 36,000  Level FlightAware
07:56PM 36.8090 7.9260 270° West 371 427 36,000  Level FlightAware
07:56PM 36.8090 7.8530 270° West 371 427 36,000  Level FlightAware
07:57PM 36.8090 7.7800 270° West 371 427 36,000  Level FlightAware
07:58PM 36.8090 7.6890 270° West 371 427 36,000  Level FlightAware
08:00PM 36.8070 7.4578 269° West  Level Estimated
08:00PM 36.8290 7.2050 269° West 383 441 36,000  Level FlightAware
08:01PM 36.8290 7.1320 270° West 383 441 36,000  Level FlightAware
08:01PM 36.8290 7.0560 270° West 383 441 36,000  Level FlightAware
08:02PM 36.8300 6.9120 271° West 383 441 36,000  Level FlightAware
08:03PM 36.8300 6.8370 270° West 383 441 36,000  Level FlightAware
08:04PM 36.8300 6.7620 270° West 383 441 36,000  Level FlightAware
08:04PM 36.8300 6.6680 270° West 383 441 36,000  Level FlightAware
08:05PM 36.8300 6.5920 270° West 383 441 36,000  Level FlightAware
08:06PM 36.8300 6.5170 270° West 383 441 36,000  Level FlightAware
08:06PM 36.8300 6.4420 270° West 383 441 36,000  Level FlightAware
08:08PM 36.8300 6.3100 270° West 383 441 36,000  Level FlightAware
08:08PM 36.8300 6.2350 270° West 383 441 36,000  Level FlightAware
08:09PM 36.8300 6.1600 270° West 383 441 36,000  Level FlightAware
08:10PM 36.8300 6.0650 270° West 383 441 36,000  Level FlightAware
08:10PM 36.8300 5.9900 270° West 383 441 36,000  Level FlightAware
08:11PM 36.8300 5.9150 270° West 383 441 36,000  Level FlightAware
08:12PM 36.8300 5.8400 270° West 383 441 36,000  Level FlightAware
08:14PM 36.8196 5.5978 267° West  Level Estimated
08:15PM 36.8136 5.4633 267° West  Level Estimated
08:16PM 36.8075 5.3288 267° West  Level Estimated
08:17PM 36.8012 5.1944 267° West  Level Estimated
08:18PM 36.7948 5.0599 267° West  Level Estimated
08:19PM 36.7882 4.9255 267° West  Level Estimated
08:20PM 36.7814 4.7911 266° West  Level Estimated
08:21PM 36.7745 4.6568 266° West  Level Estimated
08:22PM 36.7675 4.5224 266° West  Level Estimated
08:23PM 36.7603 4.3881 266° West  Level Estimated
08:24PM 36.7530 4.2538 266° West  Level Estimated
08:25PM 36.7455 4.1195 266° West  Level Estimated
08:26PM 36.7378 3.9853 266° West  Level Estimated
08:27PM 36.7300 3.8511 266° West  Level Estimated
08:28PM 36.7221 3.7169 266° West  Level Estimated
08:29PM 36.7140 3.5827 266° West  Level Estimated
08:30PM 36.7057 3.4486 266° West  Level Estimated
08:31PM 36.6973 3.3145 266° West  Level Estimated
08:32PM 36.6910 3.2154 265° West  Level Estimated
08:33PM 36.6910 3.2154 338° Northwest  Level Estimated
08:34PM 36.6910 3.2154 338° Northwest  Level Estimated
08:35PM 36.6910 3.2154 338° Northwest  Level Estimated
08:36PM 36.6910 3.2154 338° Northwest  Level Estimated
08:37PM 36.6910 3.2154 338° Northwest  Level Estimated
08:38PM 36.6910 3.2154 338° Northwest  Level Estimated
08:39PM 36.6910 3.2154 338° Northwest  Level Estimated
08:40PM 36.6910 3.2154 338° Northwest  Level Estimated
08:41PM 36.6910 3.2154 338° Northwest  Level Estimated
08:42PM 36.6910 3.2154 338° Northwest  Level Estimated
08:43PM 36.6910 3.2154 338° Northwest  Level Estimated
08:44PM 36.6910 3.2154 338° Northwest  Level Estimated
08:45PM 36.6910 3.2154 338° Northwest  Level Estimated
08:46PM 36.6910 3.2154 338° Northwest  Level Estimated
08:47PM 36.6910 3.2154 338° Northwest  Level Estimated
08:48PM 36.6910 3.2154 338° Northwest  Level Estimated
08:49PM 36.6910 3.2154 338° Northwest  Level Estimated